createdAt,value
2023-05-17T00:02:54.740Z,9.52
2023-05-17T00:05:56.921Z,13.00
2023-05-17T00:08:59.654Z,12.65
2023-05-17T00:12:01.899Z,12.80
2023-05-17T00:15:05.184Z,10.82
2023-05-17T00:18:07.204Z,12.32
2023-05-17T00:21:09.306Z,10.13
2023-05-17T00:24:11.148Z,11.13
2023-05-17T00:27:13.052Z,9.35
2023-05-17T00:30:15.227Z,10.55
2023-05-17T00:33:17.618Z,11.65
2023-05-17T00:36:19.518Z,12.00
2023-05-17T00:39:22.969Z,11.07
2023-05-17T00:45:27.011Z,11.30
2023-05-17T00:48:29.801Z,9.93
2023-05-17T00:51:33.620Z,10.45
2023-05-17T00:54:35.540Z,13.07
2023-05-17T00:57:38.936Z,7.70
2023-05-17T01:03:44.094Z,9.13
2023-05-17T01:06:46.237Z,8.90
2023-05-17T01:09:48.436Z,10.13
2023-05-17T01:13:11.043Z,12.95
2023-05-17T01:16:22.989Z,10.57
2023-05-17T01:19:41.786Z,10.63
2023-05-17T01:22:46.129Z,12.55
2023-05-17T01:26:09.430Z,11.02
2023-05-17T01:29:14.274Z,8.98
2023-05-17T01:32:16.337Z,8.73
2023-05-17T01:35:18.452Z,12.05
2023-05-17T01:38:20.499Z,11.68
2023-05-17T01:41:41.604Z,11.88
2023-05-17T01:45:28.426Z,14.82
2023-05-17T01:48:40.929Z,10.02
2023-05-17T01:51:56.562Z,9.15
2023-05-17T01:55:19.270Z,11.02
2023-05-17T01:58:25.231Z,13.35
2023-05-17T02:01:29.760Z,8.93
2023-05-17T02:04:32.090Z,12.00
2023-05-17T02:07:34.183Z,9.02
2023-05-17T02:10:37.463Z,11.55
2023-05-17T02:13:40.348Z,8.98
2023-05-17T02:16:42.540Z,8.43
2023-05-17T02:19:47.662Z,14.50
2023-05-17T02:22:49.800Z,9.65
2023-05-17T02:25:51.738Z,11.18
2023-05-17T02:28:53.859Z,11.35
2023-05-17T02:31:56.553Z,10.40
2023-05-17T02:34:58.412Z,12.13
2023-05-17T02:38:00.533Z,16.23
2023-05-17T02:41:03.809Z,15.10
2023-05-17T02:44:10.432Z,9.77
2023-05-17T02:47:12.431Z,7.72
2023-05-17T02:50:14.435Z,10.90
2023-05-17T02:53:16.416Z,12.40
2023-05-17T02:56:19.253Z,8.82
2023-05-17T02:59:21.293Z,12.48
2023-05-17T03:02:23.217Z,9.85
2023-05-17T03:05:25.185Z,8.27
2023-05-17T03:08:27.040Z,8.15
2023-05-17T03:11:29.125Z,12.93
2023-05-17T03:14:31.366Z,14.85
2023-05-17T03:17:33.351Z,15.43
2023-05-17T03:20:36.004Z,11.40
2023-05-17T03:23:37.993Z,8.50
2023-05-17T03:26:39.865Z,13.63
2023-05-17T03:29:41.788Z,11.70
2023-05-17T03:32:44.540Z,14.65
2023-05-17T03:35:49.379Z,17.35
2023-05-17T03:38:51.200Z,13.27
2023-05-17T03:41:53.989Z,13.00
2023-05-17T03:44:55.818Z,17.02
2023-05-17T03:47:57.756Z,10.20
2023-05-17T03:51:01.373Z,8.70
2023-05-17T03:54:03.437Z,13.65
2023-05-17T03:57:05.501Z,13.52
2023-05-17T04:00:10.673Z,11.73
2023-05-17T04:03:13.088Z,11.02
2023-05-17T04:06:15.210Z,7.43
2023-05-17T04:09:17.034Z,17.02
2023-05-17T04:12:19.018Z,13.27
2023-05-17T04:15:22.018Z,12.75
2023-05-17T04:18:24.095Z,11.70
2023-05-17T04:21:26.599Z,8.63
2023-05-17T04:24:28.387Z,12.07
2023-05-17T04:27:36.448Z,12.40
2023-05-17T04:30:42.869Z,13.98
2023-05-17T04:33:44.696Z,13.45
2023-05-17T04:36:46.580Z,12.63
2023-05-17T04:39:49.235Z,16.92
2023-05-17T04:42:51.320Z,13.32
2023-05-17T04:46:02.556Z,12.88
2023-05-17T04:49:04.592Z,17.90
2023-05-17T04:52:11.354Z,10.45
2023-05-17T04:55:13.876Z,14.10
2023-05-17T04:58:22.816Z,12.30
2023-05-17T05:01:24.581Z,13.15
2023-05-17T05:04:26.675Z,15.77
2023-05-17T05:07:28.841Z,21.20
2023-05-17T05:10:31.077Z,13.07
2023-05-17T05:13:33.462Z,14.63
2023-05-17T05:16:42.630Z,16.20
2023-05-17T05:19:44.541Z,14.85
2023-05-17T05:22:47.801Z,21.20
2023-05-17T05:25:49.682Z,21.23
2023-05-17T05:28:52.440Z,17.23
2023-05-17T05:31:55.148Z,13.32
2023-05-17T05:34:58.826Z,21.75
2023-05-17T05:38:01.016Z,12.88
2023-05-17T05:41:03.185Z,14.25
2023-05-17T05:44:05.208Z,19.98
2023-05-17T05:47:07.075Z,22.23
2023-05-17T05:50:09.723Z,18.42
2023-05-17T05:53:19.032Z,15.32
2023-05-17T05:56:21.662Z,17.92
2023-05-17T05:59:25.123Z,14.52
2023-05-17T06:02:27.112Z,19.02
2023-05-17T06:05:29.098Z,20.90
2023-05-17T06:08:31.183Z,21.42
2023-05-17T06:11:33.958Z,16.05
2023-05-17T06:14:37.733Z,20.35
2023-05-17T06:17:39.633Z,18.52
2023-05-17T06:20:41.517Z,21.98
2023-05-17T06:23:44.260Z,24.23
2023-05-17T06:26:47.250Z,24.90
2023-05-17T06:29:50.639Z,19.02
2023-05-17T06:32:52.498Z,25.80
2023-05-17T06:39:02.373Z,23.70
2023-05-17T06:42:04.976Z,20.42
2023-05-17T06:45:07.680Z,34.97
2023-05-17T06:48:09.838Z,27.50
2023-05-17T06:51:11.723Z,19.88
2023-05-17T06:54:14.357Z,22.08
2023-05-17T06:57:16.126Z,23.00
2023-05-17T07:00:19.197Z,32.75
2023-05-17T07:03:21.163Z,28.55
2023-05-17T07:06:24.343Z,28.88
2023-05-17T07:09:26.445Z,23.98
2023-05-17T07:12:28.496Z,18.63
2023-05-17T07:15:30.567Z,25.10
2023-05-17T07:18:33.494Z,27.60
2023-05-17T07:21:35.853Z,18.88
2023-05-17T07:24:38.747Z,67.38
2023-05-17T07:27:40.727Z,27.45
2023-05-17T07:30:42.732Z,23.08
2023-05-17T07:33:44.699Z,17.52
2023-05-17T07:36:47.331Z,31.00
2023-05-17T07:39:49.402Z,23.43
2023-05-17T07:42:53.002Z,20.67
2023-05-17T07:45:54.978Z,19.73
2023-05-17T07:48:58.754Z,28.67
2023-05-17T07:52:02.729Z,18.08
2023-05-17T07:55:05.923Z,14.57
2023-05-17T07:58:11.828Z,16.58
2023-05-17T08:01:13.778Z,16.67
2023-05-17T08:04:15.948Z,16.88
2023-05-17T08:07:19.549Z,15.70
2023-05-17T08:10:21.786Z,12.88
2023-05-17T08:13:24.434Z,18.20
2023-05-17T08:16:26.926Z,27.00
2023-05-17T08:19:29.860Z,18.50
2023-05-17T08:22:31.747Z,15.02
2023-05-17T08:25:34.687Z,14.43
2023-05-17T08:28:36.458Z,12.35
2023-05-17T08:31:39.122Z,9.93
2023-05-17T08:34:41.142Z,7.70
2023-05-17T08:37:43.952Z,8.23
2023-05-17T08:40:54.423Z,9.40
2023-05-17T08:43:57.134Z,7.35
2023-05-17T08:47:00.656Z,6.97
2023-05-17T08:53:08.127Z,11.63
2023-05-17T08:56:13.804Z,8.90
2023-05-17T08:59:15.982Z,10.77
2023-05-17T09:02:18.667Z,11.35
2023-05-17T09:05:22.698Z,17.58
2023-05-17T09:08:35.130Z,8.43
2023-05-17T09:11:37.174Z,13.98
2023-05-17T09:14:41.369Z,12.70
2023-05-17T09:17:44.017Z,9.82
2023-05-17T09:20:52.458Z,12.95
2023-05-17T09:24:05.374Z,8.63
2023-05-17T09:27:11.647Z,7.97
2023-05-17T09:30:13.674Z,8.80
2023-05-17T09:33:17.781Z,11.77
2023-05-17T09:36:22.569Z,18.13
2023-05-17T09:39:26.532Z,9.25
2023-05-17T09:42:28.428Z,10.48
2023-05-17T09:45:33.495Z,9.32
2023-05-17T09:48:38.984Z,9.23
2023-05-17T09:51:43.701Z,9.90
2023-05-17T09:54:55.210Z,8.13
2023-05-17T09:58:04.634Z,13.73
2023-05-17T10:01:07.433Z,8.65
2023-05-17T10:04:20.118Z,6.70
2023-05-17T10:07:22.889Z,12.73
2023-05-17T10:10:26.200Z,13.05
2023-05-17T10:13:33.549Z,6.38
2023-05-17T10:16:40.736Z,8.57
2023-05-17T10:19:43.238Z,12.30
2023-05-17T10:22:46.465Z,14.95
2023-05-17T10:25:49.183Z,10.05
2023-05-17T10:28:53.535Z,6.72
2023-05-17T10:31:56.456Z,9.05
2023-05-17T10:35:10.149Z,6.25
2023-05-17T10:38:13.755Z,8.18
2023-05-17T10:41:17.417Z,10.82
2023-05-17T10:44:19.633Z,9.70
2023-05-17T10:47:23.331Z,6.75
2023-05-17T10:50:27.028Z,13.05
2023-05-17T10:53:30.036Z,9.93
2023-05-17T10:56:32.938Z,8.98
2023-05-17T10:59:37.964Z,8.02
2023-05-17T11:02:44.243Z,13.73
2023-05-17T11:06:13.158Z,9.18
2023-05-17T11:09:26.167Z,10.70
2023-05-17T11:12:54.546Z,12.38
2023-05-17T11:16:07.830Z,8.60
2023-05-17T11:19:11.788Z,9.68
2023-05-17T11:22:16.408Z,10.15
2023-05-17T11:25:19.384Z,9.13
2023-05-17T11:28:22.487Z,14.55
2023-05-17T11:31:32.214Z,9.02
2023-05-17T11:34:34.343Z,18.58
2023-05-17T11:37:37.073Z,8.77
2023-05-17T11:40:39.992Z,12.63
2023-05-17T11:43:47.325Z,6.75
2023-05-17T11:46:50.519Z,10.88
2023-05-17T11:49:55.677Z,10.68
2023-05-17T11:53:00.319Z,8.52
2023-05-17T11:56:07.071Z,8.57
2023-05-17T11:59:09.637Z,9.27
2023-05-17T12:02:32.140Z,6.03
2023-05-17T12:05:35.362Z,8.10
2023-05-17T12:08:40.116Z,8.85
2023-05-17T12:11:42.490Z,7.10
2023-05-17T12:14:49.775Z,8.13
2023-05-17T12:17:53.663Z,9.77
2023-05-17T12:21:00.316Z,7.97
2023-05-17T12:24:02.304Z,9.93
2023-05-17T12:27:05.085Z,12.10
2023-05-17T12:30:16.480Z,19.73
2023-05-17T12:33:18.571Z,24.00
2023-05-17T12:36:22.389Z,23.02
2023-05-17T12:39:28.145Z,10.80
2023-05-17T12:42:30.041Z,15.95
2023-05-17T12:45:34.611Z,10.38
2023-05-17T12:48:37.695Z,20.33
2023-05-17T12:51:49.682Z,6.38
2023-05-17T12:54:51.561Z,11.02
2023-05-17T12:57:55.409Z,5.70
2023-05-17T13:01:02.410Z,7.15
2023-05-17T13:04:05.063Z,6.40
2023-05-17T13:07:07.574Z,5.32
2023-05-17T13:10:27.900Z,7.90
2023-05-17T13:13:33.256Z,6.13
2023-05-17T13:16:39.333Z,10.63
2023-05-17T13:19:41.665Z,6.25
2023-05-17T13:22:48.170Z,10.48
2023-05-17T13:25:50.466Z,7.95
2023-05-17T13:28:53.243Z,9.38
2023-05-17T13:31:55.025Z,5.72
2023-05-17T13:35:01.895Z,7.35
2023-05-17T13:38:03.737Z,7.10
2023-05-17T13:41:06.754Z,11.48
2023-05-17T13:44:09.041Z,7.28
2023-05-17T13:47:11.204Z,8.45
2023-05-17T13:50:15.954Z,11.00
2023-05-17T13:53:18.981Z,10.02
2023-05-17T13:56:22.411Z,9.07
2023-05-17T14:02:26.231Z,8.38
2023-05-17T14:05:28.279Z,9.38
2023-05-17T14:08:30.701Z,7.90
2023-05-17T14:11:32.590Z,7.13
2023-05-17T14:14:34.570Z,4.78
2023-05-17T14:20:40.643Z,6.20
2023-05-17T14:23:44.144Z,7.07
2023-05-17T14:26:46.054Z,8.27
2023-05-17T14:29:48.125Z,8.63
2023-05-17T14:32:50.118Z,6.18
2023-05-17T14:35:52.037Z,8.05
2023-05-17T14:38:54.082Z,6.13
2023-05-17T14:41:56.921Z,8.98
2023-05-17T14:44:58.813Z,10.80
2023-05-17T14:48:02.251Z,8.40
2023-05-17T14:54:06.140Z,8.93
2023-05-17T14:57:11.982Z,4.50
2023-05-17T15:00:16.571Z,8.80
2023-05-17T15:03:21.714Z,7.55
2023-05-17T15:06:27.618Z,12.38
2023-05-17T15:09:31.039Z,10.73
2023-05-17T15:15:36.716Z,22.60
2023-05-17T15:18:39.521Z,8.48
2023-05-17T15:21:42.146Z,7.18
2023-05-17T15:24:49.718Z,8.60
2023-05-17T15:27:51.554Z,7.70
2023-05-17T15:31:06.220Z,5.10
2023-05-17T15:34:08.927Z,5.70
2023-05-17T15:37:14.268Z,7.22
2023-05-17T15:40:16.882Z,5.32
2023-05-17T15:43:20.450Z,7.27
2023-05-17T15:49:25.608Z,6.45
2023-05-17T15:52:27.500Z,4.15
2023-05-17T15:55:29.501Z,9.65
2023-05-17T15:58:33.140Z,7.18
2023-05-17T16:04:36.741Z,7.88
2023-05-17T16:07:40.663Z,7.93
2023-05-17T16:10:42.570Z,6.68
2023-05-17T16:13:44.671Z,7.72
2023-05-17T16:16:46.659Z,5.50
2023-05-17T16:19:48.614Z,6.50
2023-05-17T16:22:51.841Z,7.97
2023-05-17T16:25:54.808Z,6.55
2023-05-17T16:28:57.092Z,5.03
2023-05-17T16:32:03.602Z,9.00
2023-05-17T16:35:06.203Z,9.93
2023-05-17T16:38:09.057Z,7.97
2023-05-17T16:41:11.100Z,11.93
2023-05-17T16:44:13.090Z,9.25
2023-05-17T16:47:15.448Z,4.80
2023-05-17T16:50:18.058Z,4.57
2023-05-17T16:53:20.111Z,16.80
2023-05-17T16:56:23.044Z,5.13
2023-05-17T16:59:24.905Z,6.78
2023-05-17T17:02:33.807Z,7.03
2023-05-17T17:05:46.259Z,6.95
2023-05-17T17:08:48.255Z,5.28
2023-05-17T17:11:50.089Z,8.45
2023-05-17T17:14:52.416Z,5.90
2023-05-17T17:17:54.515Z,8.27
2023-05-17T17:20:57.335Z,11.25
2023-05-17T17:23:59.473Z,6.22
2023-05-17T17:27:06.100Z,6.32
2023-05-17T17:30:08.407Z,9.43
2023-05-17T17:33:11.346Z,7.38
2023-05-17T17:36:13.346Z,11.20
2023-05-17T17:39:18.740Z,10.88
2023-05-17T17:42:20.983Z,10.40
2023-05-17T17:45:25.430Z,7.22
2023-05-17T17:48:27.376Z,6.20
2023-05-17T17:51:29.360Z,4.72
2023-05-17T17:54:31.325Z,6.68
2023-05-17T17:57:40.087Z,6.57
2023-05-17T18:00:42.121Z,11.15
2023-05-17T18:03:43.946Z,7.95
2023-05-17T18:06:50.100Z,16.38
2023-05-17T18:09:52.473Z,8.68
2023-05-17T18:12:54.285Z,11.30
2023-05-17T18:15:58.158Z,10.15
2023-05-17T18:19:00.784Z,9.38
2023-05-17T18:22:03.002Z,7.38
2023-05-17T18:25:05.493Z,8.73
2023-05-17T18:28:09.118Z,9.32
2023-05-17T18:31:11.499Z,6.75
2023-05-17T18:34:14.101Z,9.18
2023-05-17T18:37:16.194Z,8.47
2023-05-17T18:40:18.314Z,8.93
2023-05-17T18:43:20.600Z,8.27
2023-05-17T18:46:22.468Z,9.55
2023-05-17T18:49:26.467Z,12.10
2023-05-17T18:52:29.676Z,15.20
2023-05-17T18:55:31.506Z,11.23
2023-05-17T18:58:33.621Z,14.55
2023-05-17T19:01:36.813Z,8.43
2023-05-17T19:04:43.293Z,7.55
2023-05-17T19:07:46.729Z,10.70
2023-05-17T19:14:18.176Z,6.28
2023-05-17T19:17:20.136Z,8.10
2023-05-17T19:20:22.050Z,7.38
2023-05-17T19:23:24.018Z,12.07
2023-05-17T19:26:26.386Z,9.48
2023-05-17T19:29:29.599Z,8.63
2023-05-17T19:32:33.158Z,17.08
2023-05-17T19:35:40.242Z,10.23
2023-05-17T19:38:42.221Z,13.98
2023-05-17T19:41:45.055Z,9.43
2023-05-17T19:44:47.017Z,9.90
2023-05-17T19:47:49.601Z,11.93
2023-05-17T19:50:53.179Z,11.20
2023-05-17T19:53:56.101Z,16.13
2023-05-17T19:56:59.621Z,11.30
2023-05-17T20:00:02.678Z,12.50
2023-05-17T20:03:05.376Z,14.43
2023-05-17T20:06:11.186Z,9.70
2023-05-17T20:09:13.008Z,8.55
2023-05-17T20:12:19.514Z,10.05
2023-05-17T20:15:23.147Z,12.02
2023-05-17T20:18:27.669Z,10.05
2023-05-17T20:21:30.034Z,11.40
2023-05-17T20:24:34.851Z,7.50
2023-05-17T20:27:36.886Z,13.38
2023-05-17T20:30:48.234Z,15.43
2023-05-17T20:33:50.330Z,7.75
2023-05-17T20:36:53.116Z,13.98
2023-05-17T20:40:00.016Z,9.73
2023-05-17T20:43:03.530Z,7.82
2023-05-17T20:49:09.837Z,11.00
2023-05-17T20:52:13.093Z,12.63
2023-05-17T20:55:15.119Z,10.98
2023-05-17T20:58:16.975Z,11.82
2023-05-17T21:01:18.955Z,13.15
2023-05-17T21:04:21.191Z,12.27
2023-05-17T21:07:26.575Z,7.38
2023-05-17T21:10:29.491Z,9.00
2023-05-17T21:13:33.782Z,17.17
2023-05-17T21:16:35.822Z,12.05
2023-05-17T21:19:38.750Z,11.32
2023-05-17T21:22:40.719Z,17.60
2023-05-17T21:25:42.606Z,12.23
2023-05-17T21:28:44.719Z,9.20
2023-05-17T21:31:47.539Z,10.52
2023-05-17T21:34:50.020Z,9.30
2023-05-17T21:40:55.567Z,10.68
2023-05-17T21:43:59.316Z,10.00
2023-05-17T21:47:01.214Z,10.23
2023-05-17T21:50:05.322Z,8.10
2023-05-17T21:53:07.140Z,8.43
2023-05-17T21:56:12.132Z,9.80
2023-05-17T21:59:13.966Z,10.20
2023-05-17T22:02:17.989Z,13.65
2023-05-17T22:05:20.509Z,9.00
2023-05-17T22:08:28.498Z,12.68
2023-05-17T22:11:30.777Z,8.38
2023-05-17T22:14:34.815Z,6.82
2023-05-17T22:17:47.847Z,16.23
2023-05-17T22:20:53.857Z,11.82
2023-05-17T22:23:56.685Z,12.32
2023-05-17T22:26:58.540Z,10.88
2023-05-17T22:30:00.938Z,9.75
2023-05-17T22:33:07.859Z,15.57
2023-05-17T22:36:14.136Z,11.65
2023-05-17T22:39:16.334Z,12.60
2023-05-17T22:42:18.196Z,9.38
2023-05-17T22:45:20.201Z,12.95
2023-05-17T22:48:22.321Z,11.27
2023-05-17T22:51:26.401Z,8.63
2023-05-17T22:54:28.399Z,14.43
2023-05-17T22:57:30.258Z,10.77
2023-05-17T23:00:32.396Z,11.23
2023-05-17T23:03:37.680Z,13.25
2023-05-17T23:06:39.743Z,11.95
2023-05-17T23:09:42.578Z,18.83
2023-05-17T23:12:44.410Z,8.93
2023-05-17T23:15:46.992Z,14.18
2023-05-17T23:18:49.221Z,11.95
2023-05-17T23:21:51.862Z,9.80
2023-05-17T23:24:54.102Z,12.03
2023-05-17T23:27:58.247Z,11.57
2023-05-17T23:31:02.135Z,13.55
2023-05-17T23:34:06.932Z,13.20
2023-05-17T23:37:08.939Z,11.20
2023-05-17T23:40:12.356Z,11.57
2023-05-17T23:43:15.195Z,10.15
2023-05-17T23:46:19.661Z,14.00
2023-05-17T23:49:23.230Z,7.93
2023-05-17T23:55:27.257Z,12.48
2023-05-17T23:58:30.036Z,9.07
